Alliance, Nebraska
Current Conditions -  °F | °C
As of 7:53 PM on Saturday 22 Nov 2014 (Local Time) from KAIA Reporting Station
Scattered Clouds Scattered Clouds  
Wind Chill: 34°   Ceiling: Unl
Heat Index: 39°   Visibility: 10mi
Dew Point: 28°   Wind: 7mph
Humidity: 65%   Direction: 210°SSW
Pressure: 29.5"   Gusts: NA
Location:  42.1°N, 102.87°W
Report Text: KAIA 230253Z AUTO 21006KT 10SM SCT090 04/M02 A2950 RMK AO2 SLP987 60000 T00391022 58010
Loading
Personal Weather Stations






























Interactive Weather Map New forecast layout! Learn more

10-Day Weather Forecast

Advertisements
Track Severe Weather on mobile